sensor_id;sensor_type;location;lat;lon;timestamp;pressure;altitude;pressure_sealevel;temperature;humidity
67430;BME280;54298;52.076;5.264;2023-01-25T00:00:33;103726.0;;;2.41;75.39
67430;BME280;54298;52.076;5.264;2023-01-25T00:03:46;103725.0;;;2.42;75.47
67430;BME280;54298;52.076;5.264;2023-01-25T00:05:22;103720.0;;;2.35;75.44
67430;BME280;54298;52.076;5.264;2023-01-25T00:06:59;103718.0;;;2.4;75.33
67430;BME280;54298;52.076;5.264;2023-01-25T00:10:14;103714.00000000001;;;2.39;75.7
67430;BME280;54298;52.076;5.264;2023-01-25T00:11:52;103711.99999999999;;;2.32;75.69
67430;BME280;54298;52.076;5.264;2023-01-25T00:13:29;103709.99999999999;;;2.27;75.67
67430;BME280;54298;52.076;5.264;2023-01-25T00:15:06;103714.00000000001;;;2.48;74.98
67430;BME280;54298;52.076;5.264;2023-01-25T00:18:20;103711.99999999999;;;2.52;74.63
67430;BME280;54298;52.076;5.264;2023-01-25T00:19:56;103708.0;;;2.38;74.64
67430;BME280;54298;52.076;5.264;2023-01-25T00:21:33;103704.0;;;2.39;74.89
67430;BME280;54298;52.076;5.264;2023-01-25T00:24:46;103702.0;;;2.42;75.11
67430;BME280;54298;52.076;5.264;2023-01-25T00:26:22;103702.0;;;2.31;75.44
67430;BME280;54298;52.076;5.264;2023-01-25T00:27:58;103701.0;;;2.41;75.36
67430;BME280;54298;52.076;5.264;2023-01-25T00:31:16;103701.0;;;2.48;75.19
67430;BME280;54298;52.076;5.264;2023-01-25T00:33:00;103693.0;;;2.37;74.86
67430;BME280;54298;52.076;5.264;2023-01-25T00:34:44;103696.0;;;2.21;75.19
67430;BME280;54298;52.076;5.264;2023-01-25T00:36:40;103692.0;;;2.27;75.0
67430;BME280;54298;52.076;5.264;2023-01-25T00:38:26;103692.0;;;2.23;75.58
67430;BME280;54298;52.076;5.264;2023-01-25T00:40:08;103696.0;;;2.33;75.33
67430;BME280;54298;52.076;5.264;2023-01-25T00:43:21;103694.0;;;2.33;75.27
67430;BME280;54298;52.076;5.264;2023-01-25T00:44:57;103695.0;;;2.42;74.91
67430;BME280;54298;52.076;5.264;2023-01-25T00:46:34;103692.0;;;2.36;74.98
67430;BME280;54298;52.076;5.264;2023-01-25T00:49:47;103692.0;;;2.38;74.49
67430;BME280;54298;52.076;5.264;2023-01-25T00:51:23;103689.00000000001;;;2.32;74.5
67430;BME280;54298;52.076;5.264;2023-01-25T00:53:00;103686.99999999999;;;2.36;74.28
67430;BME280;54298;52.076;5.264;2023-01-25T00:56:14;103679.0;;;2.06;75.02
67430;BME280;54298;52.076;5.264;2023-01-25T00:57:51;103683.99999999999;;;2.14;75.3
67430;BME280;54298;52.076;5.264;2023-01-25T00:59:27;103686.99999999999;;;2.17;75.2
67430;BME280;54298;52.076;5.264;2023-01-25T01:01:03;103682.0;;;2.17;75.06
67430;BME280;54298;52.076;5.264;2023-01-25T01:04:15;103677.0;;;2.21;75.05
67430;BME280;54298;52.076;5.264;2023-01-25T01:05:58;103678.0;;;2.25;74.87
67430;BME280;54298;52.076;5.264;2023-01-25T01:07:36;103673.0;;;2.19;75.02
67430;BME280;54298;52.076;5.264;2023-01-25T01:10:58;103678.0;;;2.19;75.11
67430;BME280;54298;52.076;5.264;2023-01-25T01:12:34;103683.0;;;1.98;75.69
67430;BME280;54298;52.076;5.264;2023-01-25T01:14:11;103679.0;;;2.04;75.7
67430;BME280;54298;52.076;5.264;2023-01-25T01:15:47;103680.0;;;1.9;75.89
67430;BME280;54298;52.076;5.264;2023-01-25T01:19:00;103676.0;;;2.09;75.09
67430;BME280;54298;52.076;5.264;2023-01-25T01:20:37;103679.0;;;2.25;74.8
67430;BME280;54298;52.076;5.264;2023-01-25T01:22:13;103678.0;;;2.04;75.25
67430;BME280;54298;52.076;5.264;2023-01-25T01:25:25;103673.0;;;2.27;74.37
67430;BME280;54298;52.076;5.264;2023-01-25T01:27:02;103679.0;;;2.21;74.78
67430;BME280;54298;52.076;5.264;2023-01-25T01:28:39;103677.0;;;2.13;74.97
67430;BME280;54298;52.076;5.264;2023-01-25T01:30:16;103676.0;;;2.13;74.8
67430;BME280;54298;52.076;5.264;2023-01-25T01:33:29;103678.0;;;2.04;75.33
67430;BME280;54298;52.076;5.264;2023-01-25T01:35:06;103681.0;;;2.02;75.8
67430;BME280;54298;52.076;5.264;2023-01-25T01:36:43;103673.0;;;2.08;75.66
67430;BME280;54298;52.076;5.264;2023-01-25T01:39:57;103672.0;;;2.07;76.02
67430;BME280;54298;52.076;5.264;2023-01-25T01:41:33;103672.0;;;2.1;75.92
67430;BME280;54298;52.076;5.264;2023-01-25T01:43:15;103669.0;;;2.11;75.94
67430;BME280;54298;52.076;5.264;2023-01-25T01:46:32;103669.0;;;2.11;75.97
67430;BME280;54298;52.076;5.264;2023-01-25T01:48:10;103669.0;;;2.11;75.44
67430;BME280;54298;52.076;5.264;2023-01-25T01:49:56;103667.0;;;2.23;75.22
67430;BME280;54298;52.076;5.264;2023-01-25T01:51:42;103668.0;;;2.27;74.94
67430;BME280;54298;52.076;5.264;2023-01-25T01:53:23;103674.0;;;2.31;74.64
67430;BME280;54298;52.076;5.264;2023-01-25T01:56:46;103669.0;;;2.04;75.42
67430;BME280;54298;52.076;5.264;2023-01-25T01:58:28;103669.0;;;1.9;75.67
67430;BME280;54298;52.076;5.264;2023-01-25T02:00:09;103670.0;;;1.92;76.11
67430;BME280;54298;52.076;5.264;2023-01-25T02:01:49;103664.00000000001;;;2.06;76.02
67430;BME280;54298;52.076;5.264;2023-01-25T02:05:06;103663.00000000001;;;2.12;75.84
67430;BME280;54298;52.076;5.264;2023-01-25T02:06:49;103669.0;;;2.08;75.66
67430;BME280;54298;52.076;5.264;2023-01-25T02:08:31;103668.0;;;1.98;74.95
67430;BME280;54298;52.076;5.264;2023-01-25T02:10:10;103667.0;;;1.85;75.64
67430;BME280;54298;52.076;5.264;2023-01-25T02:13:27;103667.0;;;1.85;75.81
67430;BME280;54298;52.076;5.264;2023-01-25T02:15:06;103659.99999999999;;;1.88;75.28
67430;BME280;54298;52.076;5.264;2023-01-25T02:16:43;103655.0;;;1.87;75.38
67430;BME280;54298;52.076;5.264;2023-01-25T02:19:59;103657.0;;;1.62;76.03
67430;BME280;54298;52.076;5.264;2023-01-25T02:21:40;103654.0;;;1.77;75.95
67430;BME280;54298;52.076;5.264;2023-01-25T02:23:24;103646.0;;;1.69;76.25
67430;BME280;54298;52.076;5.264;2023-01-25T02:25:06;103651.0;;;1.65;76.52
67430;BME280;54298;52.076;5.264;2023-01-25T02:28:23;103654.0;;;1.54;76.64
67430;BME280;54298;52.076;5.264;2023-01-25T02:30:04;103650.0;;;1.55;76.58
67430;BME280;54298;52.076;5.264;2023-01-25T02:31:43;103650.0;;;1.52;77.02
67430;BME280;54298;52.076;5.264;2023-01-25T02:33:21;103650.0;;;1.67;76.66
67430;BME280;54298;52.076;5.264;2023-01-25T02:36:34;103644.0;;;1.77;76.47
67430;BME280;54298;52.076;5.264;2023-01-25T02:38:13;103645.0;;;1.78;75.97
67430;BME280;54298;52.076;5.264;2023-01-25T02:39:51;103649.0;;;1.64;76.03
67430;BME280;54298;52.076;5.264;2023-01-25T02:41:32;103651.0;;;1.62;76.66
67430;BME280;54298;52.076;5.264;2023-01-25T02:44:46;103642.0;;;1.76;76.08
67430;BME280;54298;52.076;5.264;2023-01-25T02:46:28;103638.00000000001;;;1.9;75.72
67430;BME280;54298;52.076;5.264;2023-01-25T02:48:05;103642.0;;;1.92;75.52
67430;BME280;54298;52.076;5.264;2023-01-25T02:51:17;103639.00000000001;;;1.73;75.73
67430;BME280;54298;52.076;5.264;2023-01-25T02:52:54;103638.00000000001;;;1.77;75.86
67430;BME280;54298;52.076;5.264;2023-01-25T02:54:31;103641.00000000001;;;1.57;76.33
67430;BME280;54298;52.076;5.264;2023-01-25T02:56:08;103640.00000000001;;;1.41;77.12
67430;BME280;54298;52.076;5.264;2023-01-25T02:59:20;103631.0;;;1.47;77.12
67430;BME280;54298;52.076;5.264;2023-01-25T03:00:58;103629.0;;;1.57;77.3
67430;BME280;54298;52.076;5.264;2023-01-25T03:02:35;103627.0;;;1.73;76.8
67430;BME280;54298;52.076;5.264;2023-01-25T03:05:48;103624.0;;;1.77;76.44
67430;BME280;54298;52.076;5.264;2023-01-25T03:07:24;103627.0;;;1.7;76.77
67430;BME280;54298;52.076;5.264;2023-01-25T03:09:01;103617.0;;;1.73;76.67
67430;BME280;54298;52.076;5.264;2023-01-25T03:12:14;103617.0;;;1.82;76.44
67430;BME280;54298;52.076;5.264;2023-01-25T03:13:51;103607.0;;;1.65;76.95
67430;BME280;54298;52.076;5.264;2023-01-25T03:15:27;103611.99999999999;;;1.84;76.41
67430;BME280;54298;52.076;5.264;2023-01-25T03:17:03;103609.99999999999;;;1.91;75.94
67430;BME280;54298;52.076;5.264;2023-01-25T03:20:17;103608.99999999999;;;1.64;76.38
67430;BME280;54298;52.076;5.264;2023-01-25T03:21:53;103609.99999999999;;;1.59;75.84
67430;BME280;54298;52.076;5.264;2023-01-25T03:23:30;103614.00000000001;;;1.94;74.94
67430;BME280;54298;52.076;5.264;2023-01-25T03:27:17;103611.99999999999;;;1.84;75.27
67430;BME280;54298;52.076;5.264;2023-01-25T03:28:53;103605.0;;;1.67;76.06
67430;BME280;54298;52.076;5.264;2023-01-25T03:30:30;103606.0;;;1.59;76.78
67430;BME280;54298;52.076;5.264;2023-01-25T03:32:07;103602.0;;;1.55;77.3
67430;BME280;54298;52.076;5.264;2023-01-25T03:33:44;103601.0;;;1.57;77.25
67430;BME280;54298;52.076;5.264;2023-01-25T03:36:56;103600.0;;;1.72;76.94
67430;BME280;54298;52.076;5.264;2023-01-25T03:38:33;103592.0;;;1.79;76.83
67430;BME280;54298;52.076;5.264;2023-01-25T03:40:11;103591.00000000001;;;1.87;76.22
67430;BME280;54298;52.076;5.264;2023-01-25T03:43:24;103586.99999999999;;;1.76;76.19
67430;BME280;54298;52.076;5.264;2023-01-25T03:45:00;103582.0;;;1.75;76.22
67430;BME280;54298;52.076;5.264;2023-01-25T03:46:36;103574.0;;;1.81;76.49
67430;BME280;54298;52.076;5.264;2023-01-25T03:49:48;103578.0;;;1.86;76.02
67430;BME280;54298;52.076;5.264;2023-01-25T03:51:25;103574.0;;;1.76;76.2
67430;BME280;54298;52.076;5.264;2023-01-25T03:53:06;103570.0;;;1.89;76.12
67430;BME280;54298;52.076;5.264;2023-01-25T03:54:42;103569.0;;;1.8;76.37
67430;BME280;54298;52.076;5.264;2023-01-25T03:57:55;103559.99999999999;;;1.88;76.22
67430;BME280;54298;52.076;5.264;2023-01-25T03:59:31;103568.0;;;1.86;76.42
67430;BME280;54298;52.076;5.264;2023-01-25T04:01:08;103568.0;;;1.93;76.13
67430;BME280;54298;52.076;5.264;2023-01-25T04:04:20;103572.0;;;2.05;75.8
67430;BME280;54298;52.076;5.264;2023-01-25T04:05:57;103574.0;;;2.04;75.47
67430;BME280;54298;52.076;5.264;2023-01-25T04:07:33;103573.0;;;1.93;75.77
67430;BME280;54298;52.076;5.264;2023-01-25T04:10:49;103572.0;;;1.9;75.8
67430;BME280;54298;52.076;5.264;2023-01-25T04:12:26;103573.0;;;1.73;76.56
67430;BME280;54298;52.076;5.264;2023-01-25T04:14:02;103573.0;;;1.85;76.37
67430;BME280;54298;52.076;5.264;2023-01-25T04:15:38;103571.0;;;1.8;76.02
67430;BME280;54298;52.076;5.264;2023-01-25T04:18:50;103575.0;;;1.82;75.86
67430;BME280;54298;52.076;5.264;2023-01-25T04:20:26;103573.0;;;1.82;75.59
67430;BME280;54298;52.076;5.264;2023-01-25T04:22:04;103575.0;;;1.86;75.25
67430;BME280;54298;52.076;5.264;2023-01-25T04:25:17;103568.0;;;1.87;75.36
67430;BME280;54298;52.076;5.264;2023-01-25T04:26:53;103569.0;;;1.78;75.53
67430;BME280;54298;52.076;5.264;2023-01-25T04:28:31;103577.0;;;1.8;75.64
67430;BME280;54298;52.076;5.264;2023-01-25T04:31:45;103573.0;;;1.86;75.36
67430;BME280;54298;52.076;5.264;2023-01-25T04:33:21;103564.00000000001;;;1.9;75.11
67430;BME280;54298;52.076;5.264;2023-01-25T04:34:58;103559.99999999999;;;1.9;75.02
67430;BME280;54298;52.076;5.264;2023-01-25T04:36:34;103554.0;;;1.87;74.91
67430;BME280;54298;52.076;5.264;2023-01-25T04:39:48;103554.0;;;1.83;75.3
67430;BME280;54298;52.076;5.264;2023-01-25T04:41:28;103554.0;;;1.84;74.97
67430;BME280;54298;52.076;5.264;2023-01-25T04:43:05;103554.0;;;1.81;74.81
67430;BME280;54298;52.076;5.264;2023-01-25T04:46:17;103550.0;;;1.83;74.72
67430;BME280;54298;52.076;5.264;2023-01-25T04:47:56;103548.0;;;1.87;74.66
67430;BME280;54298;52.076;5.264;2023-01-25T04:49:33;103536.99999999999;;;1.79;74.97
67430;BME280;54298;52.076;5.264;2023-01-25T04:51:09;103533.0;;;1.78;74.99
67430;BME280;54298;52.076;5.264;2023-01-25T04:54:21;103538.00000000001;;;1.72;75.0
67430;BME280;54298;52.076;5.264;2023-01-25T04:55:57;103539.00000000001;;;1.75;74.77
67430;BME280;54298;52.076;5.264;2023-01-25T04:57:34;103533.99999999999;;;1.75;74.84
67430;BME280;54298;52.076;5.264;2023-01-25T05:00:46;103534.99999999999;;;1.73;74.99
67430;BME280;54298;52.076;5.264;2023-01-25T05:02:22;103539.00000000001;;;1.79;74.8
67430;BME280;54298;52.076;5.264;2023-01-25T05:03:58;103530.0;;;1.69;75.08
67430;BME280;54298;52.076;5.264;2023-01-25T05:07:10;103531.0;;;1.65;74.97
67430;BME280;54298;52.076;5.264;2023-01-25T05:08:46;103536.99999999999;;;1.71;74.66
67430;BME280;54298;52.076;5.264;2023-01-25T05:10:23;103541.00000000001;;;1.64;74.74
67430;BME280;54298;52.076;5.264;2023-01-25T05:13:35;103541.00000000001;;;1.58;74.2
67430;BME280;54298;52.076;5.264;2023-01-25T05:15:11;103543.0;;;1.52;73.74
67430;BME280;54298;52.076;5.264;2023-01-25T05:16:48;103539.00000000001;;;1.66;73.58
67430;BME280;54298;52.076;5.264;2023-01-25T05:18:25;103541.00000000001;;;1.52;74.56
67430;BME280;54298;52.076;5.264;2023-01-25T05:22:12;103528.0;;;1.36;75.14
67430;BME280;54298;52.076;5.264;2023-01-25T05:23:49;103532.0;;;1.35;75.47
67430;BME280;54298;52.076;5.264;2023-01-25T05:29:03;103529.0;;;1.48;75.3
67430;BME280;54298;52.076;5.264;2023-01-25T05:32:17;103525.0;;;1.5;75.08
67430;BME280;54298;52.076;5.264;2023-01-25T05:33:55;103524.0;;;1.57;74.98
67430;BME280;54298;52.076;5.264;2023-01-25T05:35:31;103515.00000000001;;;1.57;74.58
67430;BME280;54298;52.076;5.264;2023-01-25T05:37:09;103518.0;;;1.63;74.58
67430;BME280;54298;52.076;5.264;2023-01-25T05:40:23;103525.0;;;1.51;74.48
67430;BME280;54298;52.076;5.264;2023-01-25T05:41:59;103529.0;;;1.46;74.83
67430;BME280;54298;52.076;5.264;2023-01-25T05:43:35;103523.0;;;1.48;74.36
67430;BME280;54298;52.076;5.264;2023-01-25T05:46:48;103524.0;;;1.45;74.41
67430;BME280;54298;52.076;5.264;2023-01-25T05:48:25;103527.0;;;1.43;74.19
67430;BME280;54298;52.076;5.264;2023-01-25T05:50:01;103525.0;;;1.36;74.05
67430;BME280;54298;52.076;5.264;2023-01-25T05:53:16;103526.0;;;1.44;73.74
67430;BME280;54298;52.076;5.264;2023-01-25T05:54:52;103527.0;;;1.36;74.05
67430;BME280;54298;52.076;5.264;2023-01-25T05:56:28;103522.0;;;1.41;74.12
67430;BME280;54298;52.076;5.264;2023-01-25T05:58:05;103531.0;;;1.39;74.45
67430;BME280;54298;52.076;5.264;2023-01-25T06:01:18;103532.0;;;1.3;74.55
67430;BME280;54298;52.076;5.264;2023-01-25T06:02:59;103532.0;;;1.33;74.47
67430;BME280;54298;52.076;5.264;2023-01-25T06:04:35;103529.0;;;1.39;74.33
67430;BME280;54298;52.076;5.264;2023-01-25T06:07:48;103533.0;;;1.33;74.37
67430;BME280;54298;52.076;5.264;2023-01-25T06:09:26;103532.0;;;1.32;74.41
67430;BME280;54298;52.076;5.264;2023-01-25T06:11:05;103533.0;;;1.42;74.19
67430;BME280;54298;52.076;5.264;2023-01-25T06:12:42;103539.00000000001;;;1.32;73.89
67430;BME280;54298;52.076;5.264;2023-01-25T06:15:55;103542.0;;;1.24;74.42
67430;BME280;54298;52.076;5.264;2023-01-25T06:17:32;103541.00000000001;;;1.19;74.27
67430;BME280;54298;52.076;5.264;2023-01-25T06:19:11;103538.00000000001;;;0.98;75.53
67430;BME280;54298;52.076;5.264;2023-01-25T06:22:25;103532.0;;;0.98;75.84
67430;BME280;54298;52.076;5.264;2023-01-25T06:24:01;103533.99999999999;;;0.96;75.99
67430;BME280;54298;52.076;5.264;2023-01-25T06:25:37;103538.00000000001;;;1.0;76.33
67430;BME280;54298;52.076;5.264;2023-01-25T06:28:49;103539.00000000001;;;1.1;76.19
67430;BME280;54298;52.076;5.264;2023-01-25T06:30:26;103533.99999999999;;;1.04;76.05
67430;BME280;54298;52.076;5.264;2023-01-25T06:32:02;103532.0;;;1.19;75.84
67430;BME280;54298;52.076;5.264;2023-01-25T06:33:38;103539.00000000001;;;1.08;76.33
67430;BME280;54298;52.076;5.264;2023-01-25T06:36:52;103536.99999999999;;;1.13;76.59
67430;BME280;54298;52.076;5.264;2023-01-25T06:38:30;103536.99999999999;;;1.18;76.67
67430;BME280;54298;52.076;5.264;2023-01-25T06:40:07;103539.00000000001;;;1.14;76.11
67430;BME280;54298;52.076;5.264;2023-01-25T06:43:22;103536.99999999999;;;1.15;76.3
67430;BME280;54298;52.076;5.264;2023-01-25T06:44:58;103533.0;;;1.12;76.08
67430;BME280;54298;52.076;5.264;2023-01-25T06:46:34;103527.0;;;1.25;75.8
67430;BME280;54298;52.076;5.264;2023-01-25T06:49:46;103528.0;;;1.27;75.77
67430;BME280;54298;52.076;5.264;2023-01-25T06:51:22;103525.0;;;1.28;75.62
67430;BME280;54298;52.076;5.264;2023-01-25T06:52:59;103530.0;;;1.33;75.52
67430;BME280;54298;52.076;5.264;2023-01-25T06:54:35;103533.0;;;1.42;75.5
67430;BME280;54298;52.076;5.264;2023-01-25T06:57:50;103531.0;;;1.33;75.45
67430;BME280;54298;52.076;5.264;2023-01-25T06:59:26;103534.99999999999;;;1.36;75.42
67430;BME280;54298;52.076;5.264;2023-01-25T07:01:05;103533.0;;;1.4;75.14
67430;BME280;54298;52.076;5.264;2023-01-25T07:04:18;103533.99999999999;;;1.42;74.97
67430;BME280;54298;52.076;5.264;2023-01-25T07:05:58;103533.0;;;1.35;75.11
67430;BME280;54298;52.076;5.264;2023-01-25T07:07:35;103533.0;;;1.41;75.11
67430;BME280;54298;52.076;5.264;2023-01-25T07:09:13;103523.0;;;1.4;75.19
67430;BME280;54298;52.076;5.264;2023-01-25T07:12:30;103521.0;;;1.36;75.06
67430;BME280;54298;52.076;5.264;2023-01-25T07:14:06;103517.0;;;1.41;74.86
67430;BME280;54298;52.076;5.264;2023-01-25T07:15:42;103514.00000000001;;;1.49;74.36
67430;BME280;54298;52.076;5.264;2023-01-25T07:18:54;103508.99999999999;;;1.34;74.81
67430;BME280;54298;52.076;5.264;2023-01-25T07:20:30;103511.99999999999;;;1.36;74.55
67430;BME280;54298;52.076;5.264;2023-01-25T07:22:06;103508.0;;;1.38;74.33
67430;BME280;54298;52.076;5.264;2023-01-25T07:25:19;103507.0;;;1.19;75.02
67430;BME280;54298;52.076;5.264;2023-01-25T07:26:55;103507.0;;;1.23;74.83
67430;BME280;54298;52.076;5.264;2023-01-25T07:28:32;103507.0;;;1.28;74.58
67430;BME280;54298;52.076;5.264;2023-01-25T07:30:10;103508.0;;;1.32;74.83
67430;BME280;54298;52.076;5.264;2023-01-25T07:33:23;103508.99999999999;;;1.29;74.69
67430;BME280;54298;52.076;5.264;2023-01-25T07:34:59;103508.99999999999;;;1.11;75.06
67430;BME280;54298;52.076;5.264;2023-01-25T07:36:36;103513.00000000001;;;1.16;75.27
67430;BME280;54298;52.076;5.264;2023-01-25T07:39:49;103508.99999999999;;;1.16;75.24
67430;BME280;54298;52.076;5.264;2023-01-25T07:41:26;103507.0;;;1.16;75.36
67430;BME280;54298;52.076;5.264;2023-01-25T07:43:03;103506.0;;;1.16;75.62
67430;BME280;54298;52.076;5.264;2023-01-25T07:46:16;103506.0;;;1.25;75.49
67430;BME280;54298;52.076;5.264;2023-01-25T07:47:53;103504.0;;;1.21;75.36
67430;BME280;54298;52.076;5.264;2023-01-25T07:49:29;103504.0;;;1.17;75.33
67430;BME280;54298;52.076;5.264;2023-01-25T07:51:22;103500.0;;;1.02;75.49
67430;BME280;54298;52.076;5.264;2023-01-25T07:54:35;103500.0;;;1.13;75.33
67430;BME280;54298;52.076;5.264;2023-01-25T07:56:11;103494.0;;;1.21;75.22
67430;BME280;54298;52.076;5.264;2023-01-25T07:57:47;103491.00000000001;;;1.28;75.09
67430;BME280;54298;52.076;5.264;2023-01-25T07:59:24;103493.0;;;1.23;75.23
67430;BME280;54298;52.076;5.264;2023-01-25T08:02:48;103492.0;;;1.16;75.37
67430;BME280;54298;52.076;5.264;2023-01-25T08:04:25;103488.00000000001;;;1.15;75.13
67430;BME280;54298;52.076;5.264;2023-01-25T08:06:04;103483.0;;;1.31;74.86
67430;BME280;54298;52.076;5.264;2023-01-25T08:09:19;103474.0;;;1.32;75.05
67430;BME280;54298;52.076;5.264;2023-01-25T08:10:54;103471.0;;;1.3;75.41
67430;BME280;54298;52.076;5.264;2023-01-25T08:12:31;103467.0;;;1.25;75.91
67430;BME280;54298;52.076;5.264;2023-01-25T08:14:10;103469.0;;;1.32;75.91
67430;BME280;54298;52.076;5.264;2023-01-25T08:17:31;103474.0;;;1.23;75.97
67430;BME280;54298;52.076;5.264;2023-01-25T08:19:09;103482.0;;;1.32;75.91
67430;BME280;54298;52.076;5.264;2023-01-25T08:20:46;103480.0;;;1.34;75.66
67430;BME280;54298;52.076;5.264;2023-01-25T08:22:23;103477.0;;;1.38;75.3
67430;BME280;54298;52.076;5.264;2023-01-25T08:25:39;103478.0;;;1.4;75.45
67430;BME280;54298;52.076;5.264;2023-01-25T08:27:15;103481.0;;;1.33;75.42
67430;BME280;54298;52.076;5.264;2023-01-25T08:28:53;103480.0;;;1.31;75.81
67430;BME280;54298;52.076;5.264;2023-01-25T08:32:07;103478.0;;;1.34;75.72
67430;BME280;54298;52.076;5.264;2023-01-25T08:33:45;103477.0;;;1.33;75.56
67430;BME280;54298;52.076;5.264;2023-01-25T08:35:22;103478.0;;;1.4;75.62
67430;BME280;54298;52.076;5.264;2023-01-25T08:38:36;103481.0;;;1.36;75.5
67430;BME280;54298;52.076;5.264;2023-01-25T08:40:13;103479.0;;;1.36;75.44
67430;BME280;54298;52.076;5.264;2023-01-25T08:41:54;103480.0;;;1.36;75.16
67430;BME280;54298;52.076;5.264;2023-01-25T08:43:30;103483.0;;;1.39;75.3
67430;BME280;54298;52.076;5.264;2023-01-25T08:46:44;103478.0;;;1.4;75.0
67430;BME280;54298;52.076;5.264;2023-01-25T08:48:21;103467.0;;;1.28;75.5
67430;BME280;54298;52.076;5.264;2023-01-25T08:49:57;103469.0;;;1.16;75.62
67430;BME280;54298;52.076;5.264;2023-01-25T08:53:10;103467.0;;;1.3;75.27
67430;BME280;54298;52.076;5.264;2023-01-25T08:54:46;103464.00000000001;;;1.17;75.56
67430;BME280;54298;52.076;5.264;2023-01-25T08:56:23;103461.99999999999;;;1.35;75.56
67430;BME280;54298;52.076;5.264;2023-01-25T08:57:59;103454.0;;;1.26;75.41
67430;BME280;54298;52.076;5.264;2023-01-25T09:01:13;103457.0;;;1.43;74.99
67430;BME280;54298;52.076;5.264;2023-01-25T09:02:49;103448.0;;;1.28;75.62
67430;BME280;54298;52.076;5.264;2023-01-25T09:04:27;103444.0;;;1.45;75.19
67430;BME280;54298;52.076;5.264;2023-01-25T09:07:41;103453.0;;;1.48;75.22
67430;BME280;54298;52.076;5.264;2023-01-25T09:09:17;103456.0;;;1.39;75.19
67430;BME280;54298;52.076;5.264;2023-01-25T09:10:53;103454.0;;;1.49;75.02
67430;BME280;54298;52.076;5.264;2023-01-25T09:14:07;103451.0;;;1.38;75.13
67430;BME280;54298;52.076;5.264;2023-01-25T09:15:43;103453.0;;;1.38;74.97
67430;BME280;54298;52.076;5.264;2023-01-25T09:17:20;103451.0;;;1.32;75.08
67430;BME280;54298;52.076;5.264;2023-01-25T09:18:58;103451.0;;;1.35;74.84
67430;BME280;54298;52.076;5.264;2023-01-25T09:22:13;103449.0;;;1.33;74.66
67430;BME280;54298;52.076;5.264;2023-01-25T09:23:51;103452.0;;;1.45;74.55
67430;BME280;54298;52.076;5.264;2023-01-25T09:25:29;103452.0;;;1.47;74.52
67430;BME280;54298;52.076;5.264;2023-01-25T09:28:44;103446.0;;;1.4;74.73
67430;BME280;54298;52.076;5.264;2023-01-25T09:30:21;103447.0;;;1.42;74.59
67430;BME280;54298;52.076;5.264;2023-01-25T09:31:57;103450.0;;;1.35;74.55
67430;BME280;54298;52.076;5.264;2023-01-25T09:33:35;103442.0;;;1.25;74.88
67430;BME280;54298;52.076;5.264;2023-01-25T09:36:49;103446.0;;;1.3;74.86
67430;BME280;54298;52.076;5.264;2023-01-25T09:38:25;103446.0;;;1.42;74.8
67430;BME280;54298;52.076;5.264;2023-01-25T09:40:03;103447.0;;;1.34;74.97
67430;BME280;54298;52.076;5.264;2023-01-25T09:44:55;103442.0;;;1.23;74.77
67430;BME280;54298;52.076;5.264;2023-01-25T09:47:07;103433.99999999999;;;1.16;75.28
67430;BME280;54298;52.076;5.264;2023-01-25T09:48:55;103433.99999999999;;;1.22;75.12
67430;BME280;54298;52.076;5.264;2023-01-25T09:50:51;103426.0;;;1.23;75.11
67430;BME280;54298;52.076;5.264;2023-01-25T09:52:52;103427.0;;;1.33;75.08
67430;BME280;54298;52.076;5.264;2023-01-25T09:54:43;103428.0;;;1.25;75.06
67430;BME280;54298;52.076;5.264;2023-01-25T09:58:03;103431.0;;;1.32;74.66
67430;BME280;54298;52.076;5.264;2023-01-25T09:59:46;103433.99999999999;;;1.38;74.53
67430;BME280;54298;52.076;5.264;2023-01-25T10:01:27;103434.99999999999;;;1.42;74.49
67430;BME280;54298;52.076;5.264;2023-01-25T10:03:14;103431.0;;;1.4;74.37
67430;BME280;54298;52.076;5.264;2023-01-25T10:04:58;103423.0;;;1.41;74.27
67430;BME280;54298;52.076;5.264;2023-01-25T10:08:23;103424.0;;;1.46;74.2
67430;BME280;54298;52.076;5.264;2023-01-25T10:10:07;103418.0;;;1.4;74.44
67430;BME280;54298;52.076;5.264;2023-01-25T10:11:47;103418.0;;;1.41;74.42
67430;BME280;54298;52.076;5.264;2023-01-25T10:13:23;103413.00000000001;;;1.45;74.41
67430;BME280;54298;52.076;5.264;2023-01-25T10:16:55;103403.0;;;1.28;74.92
67430;BME280;54298;52.076;5.264;2023-01-25T10:18:43;103404.0;;;1.34;74.25
67430;BME280;54298;52.076;5.264;2023-01-25T10:20:33;103407.0;;;1.35;74.58
67430;BME280;54298;52.076;5.264;2023-01-25T10:22:19;103398.0;;;1.4;74.89
67430;BME280;54298;52.076;5.264;2023-01-25T10:24:09;103395.0;;;1.4;74.91
67430;BME280;54298;52.076;5.264;2023-01-25T10:27:39;103392.0;;;1.38;74.61
67430;BME280;54298;52.076;5.264;2023-01-25T10:29:20;103384.99999999999;;;1.28;74.98
67430;BME280;54298;52.076;5.264;2023-01-25T10:31:01;103388.00000000001;;;1.24;75.0
67430;BME280;54298;52.076;5.264;2023-01-25T10:32:39;103386.99999999999;;;1.41;74.77
67430;BME280;54298;52.076;5.264;2023-01-25T10:34:18;103380.0;;;1.49;74.69
67430;BME280;54298;52.076;5.264;2023-01-25T10:37:37;103375.0;;;1.38;75.08
67430;BME280;54298;52.076;5.264;2023-01-25T10:39:14;103371.0;;;1.32;75.27
67430;BME280;54298;52.076;5.264;2023-01-25T10:40:57;103365.00000000001;;;1.18;75.52
67430;BME280;54298;52.076;5.264;2023-01-25T10:42:49;103361.99999999999;;;1.36;75.36
67430;BME280;54298;52.076;5.264;2023-01-25T10:44:37;103358.99999999999;;;1.46;75.11
67430;BME280;54298;52.076;5.264;2023-01-25T10:47:59;103357.0;;;1.42;74.88
67430;BME280;54298;52.076;5.264;2023-01-25T10:49:41;103358.0;;;1.39;75.12
67430;BME280;54298;52.076;5.264;2023-01-25T10:51:28;103356.0;;;1.39;75.33
67430;BME280;54298;52.076;5.264;2023-01-25T10:53:21;103354.0;;;1.36;75.24
67430;BME280;54298;52.076;5.264;2023-01-25T10:56:51;103350.0;;;1.34;75.27
67430;BME280;54298;52.076;5.264;2023-01-25T10:58:29;103342.0;;;1.21;75.66
67430;BME280;54298;52.076;5.264;2023-01-25T11:00:22;103333.0;;;1.16;76.09